Latest Weather Observations for Orbost

IDV60801

Issued at 7:02 pm EST Monday 27 June 2016 (issued every 30 minutes, with the page automatically refreshed every 10 minutes)

About weather observations | Map of weather stations | Latest weather observations for VIC | Other Formats
Station Details ID: 084145 Name: ORBOST Lat: -37.69 Lon: 148.47 Height: 62.65 m
Data from the previous 72 hours. | See also: Recent months at Orbost
Date/Time
EST
Temp
°C
App
Temp
°C
Dew
Point
°C
Rel
Hum
%
Delta-T
°C
Wind Press
QNH
hPa
Press
MSL
hPa
Rain since
9am
mm
Dir  Spd
km/h
Gust
km/h
Spd
kts
Gust
kts
27/07:00pm 9.8 7.9 6.9 82 1.4 WNW 6 9 3 5 1018.6 1018.7 0.0
27/06:30pm 10.0 8.1 6.5 79 1.6 WNW 6 7 3 4 1018.1 1018.2 0.0
27/06:00pm 10.1 8.8 6.1 76 1.9 W 2 4 1 2 1017.9 1018.0 0.0
27/05:30pm 10.3 9.3 5.7 73 2.1 CALM 0 2 0 1 1017.3 1017.4 0.0
27/05:00pm 10.5 8.8 6.1 74 2.0 NNW 4 4 2 2 1016.9 1017.0 0.0
27/04:30pm 11.0 9.7 6.0 71 2.3 WNW 2 4 1 2 1016.5 1016.6 0.0
27/04:00pm 11.5 9.3 5.2 65 2.9 W 6 7 3 4 1016.2 1016.3 0.0
27/03:30pm 11.8 9.4 5.4 65 3.0 WNW 7 13 4 7 1015.9 1016.0 0.0
27/03:00pm 12.9 10.0 4.6 57 3.8 W 9 15 5 8 1015.6 1015.7 0.0
27/02:30pm 12.8 9.1 4.5 57 3.8 WSW 13 19 7 10 1015.5 1015.6 0.0
27/02:00pm 12.4 9.4 4.1 57 3.8 WNW 9 17 5 9 1015.4 1015.5 0.0
27/01:30pm 11.5 8.1 3.8 59 3.4 NW 11 15 6 8 1015.5 1015.6 0.0
27/01:00pm 10.3 7.5 2.9 60 3.2 NW 7 13 4 7 1015.8 1015.9 0.0
27/12:30pm 10.3 7.1 3.1 61 3.1 NW 9 17 5 9 1016.0 1016.1 0.0
27/12:00pm 10.1 6.4 2.5 59 3.2 NW 11 15 6 8 1016.3 1016.4 0.0
27/11:30am 9.9 6.3 3.2 63 2.9 NNW 11 17 6 9 1016.6 1016.7 0.0
27/11:00am 9.4 6.1 2.5 62 2.9 NNW 9 15 5 8 1016.8 1016.9 0.0
27/10:30am 9.4 5.8 2.9 64 2.8 NNW 11 13 6 7 1017.0 1017.1 0.0
27/10:00am 8.6 5.1 3.6 71 2.2 NNW 11 17 6 9 1017.1 1017.2 0.0
27/09:30am 7.3 4.5 3.0 74 1.8 NNW 7 11 4 6 1017.1 1017.2 0.0
27/09:00am 5.2 2.8 2.2 81 1.2 NNW 4 7 2 4 1016.9 1017.0 0.0
27/08:30am 4.8 1.8 2.0 82 1.1 N 7 9 4 5 1016.6 1016.7 0.0
27/08:00am 3.7 0.8 1.4 85 0.9 NNW 6 7 3 4 1016.5 1016.6 0.0
27/07:30am 4.0 1.2 1.9 86 0.8 N 6 7 3 4 1016.5 1016.6 0.0
27/07:00am 3.5 0.7 1.9 89 0.6 N 6 7 3 4 1016.3 1016.4 0.0
27/06:30am 3.3 0.9 2.1 92 0.5 NNW 4 7 2 4 1016.1 1016.2 0.0
27/06:00am 3.0 1.3 2.0 93 0.4 CALM 0 0 0 0 1015.9 1016.0 0.0
27/05:30am 3.1 1.0 1.9 92 0.5 NNW 2 2 1 1 1015.8 1015.9 0.0
27/05:00am 5.0 2.1 2.5 84 1.0 N 7 9 4 5 1015.6 1015.7 0.0
27/04:30am 5.1 2.2 2.5 83 1.1 N 7 9 4 5 1015.7 1015.8 0.0
27/04:00am 5.3 2.6 2.7 83 1.1 NNW 6 7 3 4 1015.8 1015.9 0.0
27/03:30am 5.9 3.1 3.1 82 1.2 NW 7 11 4 6 1015.8 1015.9 0.0
27/03:00am 5.5 2.7 3.2 85 1.0 NNW 7 11 4 6 1015.9 1016.0 0.0
27/02:30am 5.0 2.2 3.2 88 0.7 NNW 7 13 4 7 1016.0 1016.1 0.0
27/02:00am 5.7 2.9 3.4 85 1.0 NW 7 11 4 6 1015.8 1015.9 0.0
27/01:30am 6.1 3.4 3.9 86 0.9 NW 7 15 4 8 1015.8 1015.9 0.0
27/01:00am 4.9 2.3 3.4 90 0.6 NNW 6 7 3 4 1015.8 1015.9 0.0
27/12:30am 5.2 2.5 3.5 89 0.7 NNW 7 9 4 5 1015.7 1015.8 0.0
27/12:00am 6.2 3.7 3.9 85 1.0 NNW 6 7 3 4 1015.6 1015.7 0.0
 
Date/Time
EST
Temp
°C
App
Temp
°C
Dew
Point
°C
Rel
Hum
%
Delta-T
°C
Wind Press
QNH
hPa
Press
MSL
hPa
Rain since
9am
mm
Dir  Spd
km/h
Gust
km/h
Spd
kts
Gust
kts
26/11:30pm 6.0 3.0 4.3 89 0.7 N 9 11 5 6 1016.0 1016.1 0.0
26/11:00pm 6.5 4.3 5.3 92 0.5 NNW 6 7 3 4 1016.0 1016.1 0.0
26/10:30pm 5.6 3.7 4.9 95 0.3 NNW 4 6 2 3 1016.0 1016.1 0.0
26/10:00pm 6.5 4.5 6.1 97 0.2 N 6 6 3 3 1016.1 1016.2 0.0
26/09:30pm 4.7 2.6 3.8 94 0.4 NW 4 7 2 4 1016.3 1016.4 0.0
26/09:00pm 7.1 5.0 5.9 92 0.5 N 6 7 3 4 1016.3 1016.4 0.0
26/08:30pm 7.1 5.0 5.7 91 0.6 N 6 6 3 3 1016.5 1016.6 0.0
26/08:00pm 6.5 5.1 5.6 94 0.4 NW 2 2 1 1 1016.5 1016.6 0.0
26/07:30pm 7.0 5.6 5.5 90 0.7 NNW 2 4 1 2 1016.5 1016.6 0.0
26/07:00pm 8.0 6.7 6.1 88 0.9 N 2 4 1 2 1016.4 1016.5 0.0
26/06:30pm 8.0 6.3 6.0 87 0.9 N 4 4 2 2 1016.2 1016.3 0.0
26/06:00pm 8.3 6.6 6.1 86 1.0 N 4 4 2 2 1016.1 1016.2 0.0
26/05:30pm 8.2 7.2 5.8 85 1.1 CALM 0 2 0 1 1016.0 1016.1 0.0
26/05:00pm 9.0 6.9 5.9 81 1.4 ESE 6 7 3 4 1015.9 1016.0 0.0
26/04:30pm 9.8 7.8 6.2 78 1.7 E 6 9 3 5 1015.9 1016.0 0.0
26/04:00pm 10.7 8.8 6.5 75 2.0 SE 6 7 3 4 1015.9 1016.0 0.0
26/03:30pm 11.8 9.8 6.3 69 2.6 SE 6 7 3 4 1016.1 1016.2 0.0
26/03:00pm 13.1 11.2 5.0 58 3.8 SE 4 6 2 3 1015.9 1016.0 0.0
26/02:30pm 14.2 12.3 4.8 53 4.4 NNE 4 7 2 4 1016.2 1016.3 0.0
26/02:00pm 13.8 12.1 4.1 52 4.4 WNW 2 4 1 2 1016.6 1016.7 0.0
26/01:30pm 13.2 11.5 3.8 53 4.3 W 2 4 1 2 1016.8 1016.9 0.0
26/01:00pm 13.5 11.7 5.2 57 3.9 SW 4 9 2 5 1017.1 1017.2 0.0
26/12:30pm 12.6 10.7 5.1 60 3.5 S 4 7 2 4 1017.5 1017.6 0.0
26/12:00pm 12.4 11.3 5.3 62 3.3 CALM 0 2 0 1 1018.3 1018.4 0.0
26/11:30am 11.7 9.8 5.1 64 3.0 W 4 6 2 3 1019.1 1019.2 0.0
26/11:00am 11.5 10.3 4.7 63 3.1 CALM 0 2 0 1 1019.7 1019.8 0.0
26/10:30am 10.7 9.2 4.8 67 2.7 WNW 2 4 1 2 1020.3 1020.4 0.0
26/10:00am 10.3 8.0 4.7 68 2.5 W 6 9 3 5 1020.6 1020.7 0.0
26/09:30am 9.7 6.3 4.1 68 2.5 NNW 11 19 6 10 1020.5 1020.6 0.0
26/09:00am 9.3 5.5 3.7 68 2.4 NNW 13 19 7 10 1020.5 1020.6 0.0
26/08:30am 9.0 6.3 3.6 69 2.3 NNW 7 11 4 6 1020.3 1020.4 0.0
26/08:00am 8.9 5.8 3.5 69 2.3 NNW 9 13 5 7 1020.3 1020.4 0.0
26/07:30am 8.7 5.5 3.1 68 2.4 NNW 9 13 5 7 1020.2 1020.3 0.0
26/07:00am 8.7 5.2 3.3 69 2.3 NNW 11 15 6 8 1020.2 1020.3 0.0
26/06:30am 8.3 5.5 3.2 70 2.2 NNW 7 9 4 5 1020.0 1020.1 0.0
26/06:00am 8.4 5.6 3.3 70 2.2 NNW 7 11 4 6 1019.9 1020.0 0.0
26/05:30am 8.2 5.4 3.3 71 2.1 NNW 7 9 4 5 1019.8 1019.9 0.0
26/05:00am 8.2 5.4 3.3 71 2.1 NNW 7 13 4 7 1019.8 1019.9 0.0
26/04:30am 8.2 5.1 3.5 72 2.0 NNW 9 13 5 7 1020.0 1020.1 0.0
26/04:00am 8.1 5.0 3.6 73 1.9 NNW 9 17 5 9 1020.0 1020.1 0.0
26/03:30am 7.6 4.1 3.5 75 1.8 NNW 11 15 6 8 1020.0 1020.1 0.0
26/03:00am 7.4 3.9 3.3 75 1.7 N 11 15 6 8 1019.9 1020.0 0.0
26/02:30am 7.9 4.5 3.8 75 1.8 N 11 17 6 9 1020.1 1020.2 0.0
26/02:00am 7.7 4.6 3.6 75 1.8 NNW 9 13 5 7 1020.3 1020.4 0.0
26/01:30am 7.1 4.4 3.5 78 1.5 NNW 7 13 4 7 1020.2 1020.3 0.0
26/01:00am 7.3 4.6 3.5 77 1.6 NNW 7 9 4 5 1020.3 1020.4 0.0
26/12:30am 7.3 4.3 3.9 79 1.5 NNW 9 11 5 6 1020.3 1020.4 0.0
26/12:00am 6.2 2.7 3.4 82 1.2 NNW 11 13 6 7 1020.6 1020.7 0.0
 
Date/Time
EST
Temp
°C
App
Temp
°C
Dew
Point
°C
Rel
Hum
%
Delta-T
°C
Wind Press
QNH
hPa
Press
MSL
hPa
Rain since
9am
mm
Dir  Spd
km/h
Gust
km/h
Spd
kts
Gust
kts
25/11:30pm 7.3 4.6 3.5 77 1.6 NW 7 13 4 7 1020.9 1021.0 0.0
25/11:00pm 7.4 4.3 3.6 77 1.6 NW 9 13 5 7 1021.1 1021.2 0.0
25/10:30pm 7.3 4.6 3.5 77 1.6 NW 7 9 4 5 1021.2 1021.3 0.0
25/10:00pm 7.3 4.6 3.7 78 1.5 WNW 7 13 4 7 1021.2 1021.3 0.0
25/09:30pm 7.9 5.2 3.9 76 1.7 NW 7 13 4 7 1021.3 1021.4 0.0
25/09:00pm 8.3 5.7 4.1 75 1.8 WNW 7 15 4 8 1021.5 1021.6 0.0
25/08:30pm 8.3 5.3 3.9 74 1.9 WNW 9 15 5 8 1021.7 1021.8 0.0
25/08:00pm 8.4 5.4 4.0 74 1.9 WNW 9 15 5 8 1021.5 1021.6 0.0
25/07:30pm 8.5 5.9 4.3 75 1.8 WNW 7 15 4 8 1021.5 1021.6 0.0
25/07:00pm 8.7 5.7 4.1 73 2.0 NW 9 15 5 8 1021.4 1021.5 0.0
25/06:30pm 8.6 5.7 4.4 75 1.9 NW 9 15 5 8 1021.4 1021.5 0.0
25/06:00pm 8.5 5.9 4.1 74 1.9 WNW 7 11 4 6 1021.1 1021.2 0.0
25/05:30pm 8.8 5.8 4.2 73 2.0 WNW 9 13 5 7 1020.8 1020.9 0.0
25/05:00pm 9.0 6.0 4.2 72 2.1 WNW 9 15 5 8 1020.7 1020.8 0.0
25/04:30pm 9.4 5.7 4.4 71 2.2 W 13 19 7 10 1020.6 1020.7 0.0
25/04:00pm 9.9 7.0 4.5 69 2.4 WNW 9 22 5 12 1020.3 1020.4 0.0
25/03:30pm 10.5 6.0 4.0 64 2.9 W 17 26 9 14 1020.2 1020.3 0.0
25/03:00pm 10.2 5.6 3.9 65 2.8 W 17 26 9 14 1020.0 1020.1 0.0
25/02:30pm 10.0 4.8 3.7 65 2.8 W 20 28 11 15 1019.9 1020.0 0.0
25/02:00pm 10.4 5.4 3.7 63 2.9 W 19 30 10 16 1019.7 1019.8 0.0
25/01:30pm 10.8 5.6 3.8 62 3.1 W 20 32 11 17 1019.8 1019.9 0.0
25/01:00pm 10.9 5.7 3.5 60 3.3 W 20 33 11 18 1019.9 1020.0 0.0
25/12:30pm 10.9 5.8 4.1 63 3.0 W 20 30 11 16 1020.1 1020.2 0.0
25/12:00pm 10.5 5.5 3.8 63 3.0 W 19 26 10 14 1020.3 1020.4 0.0
25/11:30am 10.1 5.0 4.0 66 2.7 W 20 28 11 15 1020.3 1020.4 0.0
25/11:00am 9.2 4.6 3.6 68 2.4 W 17 28 9 15 1020.6 1020.7 0.0
25/10:30am 8.9 4.3 3.7 70 2.3 W 17 30 9 16 1020.6 1020.7 0.0
25/10:00am 8.0 2.9 3.1 71 2.1 W 19 30 10 16 1020.5 1020.6 0.0
25/09:30am 7.6 2.9 3.1 73 1.9 W 17 28 9 15 1020.3 1020.4 0.0
25/09:00am 7.0 2.6 2.7 74 1.8 W 15 24 8 13 1019.9 1020.0 0.0
25/08:30am 6.4 2.7 2.3 75 1.7 WNW 11 20 6 11 1019.6 1019.7 0.0
25/08:00am 5.5 1.0 2.0 78 1.4 WNW 15 22 8 12 1019.4 1019.5 0.0
25/07:30am 5.1 1.3 1.8 79 1.3 WNW 11 17 6 9 1018.9 1019.0 0.0
25/07:00am 5.0 1.6 1.7 79 1.3 WNW 9 15 5 8 1018.7 1018.8 0.0
25/06:30am 5.6 1.5 2.1 78 1.4 W 13 20 7 11 1018.4 1018.5 0.0
25/06:00am 5.4 0.8 1.7 77 1.5 W 15 24 8 13 1018.1 1018.2 0.0
25/05:30am 5.5 0.9 1.8 77 1.5 WNW 15 26 8 14 1017.6 1017.7 0.0
25/05:00am 5.4 1.2 1.7 77 1.5 WNW 13 24 7 13 1017.1 1017.2 0.0
25/04:30am 5.4 1.2 1.7 77 1.5 WNW 13 22 7 12 1016.6 1016.7 0.0
25/04:00am 5.4 0.8 1.5 76 1.5 WNW 15 26 8 14 1016.2 1016.3 0.0
25/03:30am 5.6 1.0 1.7 76 1.6 WNW 15 24 8 13 1016.1 1016.2 0.0
25/03:00am 5.4 0.4 1.5 76 1.6 WNW 17 26 9 14 1015.9 1016.0 0.0
25/02:30am 5.3 0.3 1.4 76 1.5 WNW 17 26 9 14 1015.6 1015.7 0.0
25/02:00am 5.2 0.6 1.3 76 1.5 WNW 15 24 8 13 1015.3 1015.4 0.0
25/01:30am 5.0 0.3 1.1 76 1.5 WNW 15 22 8 12 1014.8 1014.9 0.0
25/01:00am 5.0 1.1 0.9 75 1.6 NW 11 19 6 10 1014.5 1014.6 0.0
25/12:30am 5.0 0.7 1.1 76 1.5 NW 13 19 7 10 1014.4 1014.5 0.0
25/12:00am 5.1 0.8 1.0 75 1.6 WNW 13 20 7 11 1014.2 1014.3 0.0
 
Date/Time
EST
Temp
°C
App
Temp
°C
Dew
Point
°C
Rel
Hum
%
Delta-T
°C
Wind Press
QNH
hPa
Press
MSL
hPa
Rain since
9am
mm
Dir  Spd
km/h
Gust
km/h
Spd
kts
Gust
kts
24/11:30pm 5.2 0.9 1.1 75 1.6 WNW 13 24 7 13 1013.7 1013.7 0.0
24/11:00pm 5.3 0.6 1.2 75 1.6 NW 15 28 8 15 1013.5 1013.5 0.0
24/10:30pm 5.5 0.5 1.2 74 1.7 WNW 17 26 9 14 1013.3 1013.3 0.0
24/10:00pm 5.6 1.0 1.5 75 1.6 WNW 15 22 8 12 1013.4 1013.4 0.0
24/09:30pm 5.6 1.4 1.7 76 1.6 WNW 13 20 7 11 1012.8 1012.8 0.0
24/09:00pm 5.7 0.7 1.6 75 1.6 WNW 17 24 9 13 1012.0 1012.0 0.0
24/08:30pm 5.5 0.5 1.6 76 1.6 WNW 17 28 9 15 1011.6 1011.6 0.0
24/08:00pm 5.6 1.1 1.9 77 1.5 WNW 15 20 8 11 1011.3 1011.3 0.0
24/07:30pm 5.5 0.6 2.0 78 1.4 WNW 17 26 9 14 1010.7 1010.7 0.0

Other Formats:

Comma delimited format used in spreadsheet applications
http://www.bom.gov.au/fwo/IDV60801/IDV60801.95918.axf

JavaScript Object Notation format (JSON) in row-major order
http://www.bom.gov.au/fwo/IDV60801/IDV60801.95918.json